createdAt,value
2018-08-10T00:01:48.220Z,83.50
2018-08-10T00:04:17.106Z,83.70
2018-08-10T00:06:45.648Z,83.50
2018-08-10T00:09:14.096Z,83.80
2018-08-10T00:11:42.742Z,83.80
2018-08-10T00:14:11.244Z,83.90
2018-08-10T00:16:40.122Z,83.80
2018-08-10T00:19:08.934Z,84.30
2018-08-10T00:21:37.560Z,84.20
2018-08-10T00:24:06.168Z,84.40
2018-08-10T00:26:34.781Z,84.50
2018-08-10T00:29:03.759Z,84.30
2018-08-10T00:31:32.868Z,84.50
2018-08-10T00:34:01.711Z,84.20
2018-08-10T00:36:30.199Z,84.60
2018-08-10T00:38:58.724Z,85.00
2018-08-10T00:41:27.307Z,84.80
2018-08-10T00:43:55.860Z,84.90
2018-08-10T00:46:24.351Z,85.00
2018-08-10T00:48:52.952Z,85.20
2018-08-10T00:51:21.468Z,84.80
2018-08-10T00:53:50.209Z,85.00
2018-08-10T00:56:19.109Z,84.90
2018-08-10T00:58:47.595Z,84.90
2018-08-10T01:01:16.231Z,85.00
2018-08-10T01:03:44.787Z,84.90
2018-08-10T01:06:14.222Z,85.10
2018-08-10T01:08:42.954Z,84.90
2018-08-10T01:11:11.540Z,85.00
2018-08-10T01:13:40.203Z,85.10
2018-08-10T01:16:09.128Z,85.00
2018-08-10T01:18:37.973Z,85.10
2018-08-10T01:21:07.147Z,84.80
2018-08-10T01:23:36.281Z,84.70
2018-08-10T01:26:05.345Z,84.80
2018-08-10T01:28:34.344Z,85.00
2018-08-10T01:31:03.407Z,85.00
2018-08-10T01:33:32.544Z,86.10
2018-08-10T01:36:01.309Z,85.30
2018-08-10T01:38:30.449Z,85.60
2018-08-10T01:40:59.656Z,85.80
2018-08-10T01:43:28.582Z,86.00
2018-08-10T01:45:58.023Z,85.90
2018-08-10T01:48:27.060Z,85.90
2018-08-10T01:50:55.916Z,85.90
2018-08-10T01:53:24.777Z,85.90
2018-08-10T01:55:53.619Z,86.60
2018-08-10T01:58:22.614Z,85.50
2018-08-10T02:00:51.564Z,86.10
2018-08-10T02:03:20.497Z,85.30
2018-08-10T02:05:49.338Z,85.50
2018-08-10T02:08:18.681Z,85.00
2018-08-10T02:10:47.527Z,85.30
2018-08-10T02:13:16.366Z,85.50
2018-08-10T02:15:45.243Z,85.60
2018-08-10T02:18:14.095Z,85.60
2018-08-10T02:20:42.887Z,85.70
2018-08-10T02:23:11.847Z,85.60
2018-08-10T02:25:41.066Z,85.20
2018-08-10T02:28:10.111Z,84.90
2018-08-10T02:30:38.971Z,84.40
2018-08-10T02:33:07.852Z,84.80
2018-08-10T02:35:36.771Z,84.30
2018-08-10T02:38:05.560Z,84.50
2018-08-10T02:40:34.392Z,83.60
2018-08-10T02:43:03.433Z,83.40
2018-08-10T02:45:32.443Z,83.20
2018-08-10T02:48:01.394Z,83.50
2018-08-10T02:50:30.241Z,83.70
2018-08-10T02:52:59.099Z,84.00
2018-08-10T02:55:27.969Z,84.20
2018-08-10T02:57:56.827Z,84.30
2018-08-10T03:00:25.777Z,84.70
2018-08-10T03:02:54.797Z,84.50
2018-08-10T03:05:24.327Z,84.40
2018-08-10T03:07:53.267Z,84.50
2018-08-10T03:10:22.019Z,84.80
2018-08-10T03:12:50.859Z,84.60
2018-08-10T03:15:20.755Z,85.60
2018-08-10T03:17:49.848Z,84.10
2018-08-10T03:20:18.744Z,83.80
2018-08-10T03:22:47.775Z,83.70
2018-08-10T03:25:16.618Z,84.10
2018-08-10T03:27:45.558Z,84.30
2018-08-10T03:30:14.580Z,84.40
2018-08-10T03:32:43.612Z,84.50
2018-08-10T03:35:12.497Z,84.70
2018-08-10T03:37:41.408Z,84.50
2018-08-10T03:40:12.789Z,84.60
2018-08-10T03:42:42.081Z,84.50
2018-08-10T03:45:11.014Z,85.00
2018-08-10T03:47:40.332Z,85.00
2018-08-10T03:50:11.437Z,84.80
2018-08-10T03:52:40.365Z,84.90
2018-08-10T03:55:10.026Z,85.00
2018-08-10T03:57:39.352Z,85.30
2018-08-10T04:00:10.774Z,85.50
2018-08-10T04:02:40.218Z,85.70
2018-08-10T04:05:10.423Z,86.30
2018-08-10T04:07:39.572Z,86.10
2018-08-10T04:10:09.431Z,86.40
2018-08-10T04:12:38.971Z,86.40
2018-08-10T04:15:10.983Z,86.50
2018-08-10T04:17:39.944Z,87.30
2018-08-10T04:20:09.361Z,88.10
2018-08-10T04:22:38.218Z,87.70
2018-08-10T04:25:07.168Z,87.80
2018-08-10T04:27:36.029Z,88.30
2018-08-10T04:30:06.663Z,88.70
2018-08-10T04:32:36.402Z,89.00
2018-08-10T04:35:05.770Z,89.00
2018-08-10T04:37:34.702Z,89.10
2018-08-10T04:40:03.833Z,89.40
2018-08-10T04:42:32.760Z,89.60
2018-08-10T04:45:01.796Z,89.50
2018-08-10T04:47:30.793Z,89.80
2018-08-10T04:49:59.590Z,89.70
2018-08-10T04:52:28.841Z,89.90
2018-08-10T04:54:57.691Z,89.50
2018-08-10T04:57:26.503Z,89.40
2018-08-10T04:59:55.372Z,89.40
2018-08-10T05:02:24.237Z,89.30
2018-08-10T05:04:53.139Z,88.80
2018-08-10T05:07:21.989Z,88.90
2018-08-10T05:09:50.935Z,89.00
2018-08-10T05:12:19.889Z,88.60
2018-08-10T05:14:48.855Z,88.70
2018-08-10T05:17:17.888Z,88.40
2018-08-10T05:19:47.122Z,88.20
2018-08-10T05:22:15.986Z,88.30
2018-08-10T05:24:44.893Z,87.90
2018-08-10T05:27:13.753Z,87.80
2018-08-10T05:29:42.643Z,87.60
2018-08-10T05:32:11.575Z,86.30
2018-08-10T05:34:40.492Z,85.60
2018-08-10T05:37:09.406Z,84.80
2018-08-10T05:39:38.506Z,82.80
2018-08-10T05:42:07.367Z,81.70
2018-08-10T05:44:36.294Z,82.20
2018-08-10T05:47:05.348Z,82.30
2018-08-10T05:49:34.278Z,81.40
2018-08-10T05:52:03.159Z,81.70
2018-08-10T05:54:31.982Z,81.30
2018-08-10T05:57:00.929Z,79.90
2018-08-10T05:59:29.732Z,79.80
2018-08-10T06:01:58.555Z,78.00
2018-08-10T06:04:27.437Z,76.00
2018-08-10T06:06:56.299Z,75.70
2018-08-10T06:09:25.205Z,74.90
2018-08-10T06:11:54.157Z,75.60
2018-08-10T06:14:23.471Z,77.00
2018-08-10T06:16:52.347Z,77.10
2018-08-10T06:19:21.183Z,78.40
2018-08-10T06:21:50.167Z,78.50
2018-08-10T06:24:19.011Z,80.00
2018-08-10T06:26:47.869Z,79.90
2018-08-10T06:29:16.741Z,80.00
2018-08-10T06:31:45.581Z,79.50
2018-08-10T06:34:14.495Z,79.90
2018-08-10T06:36:43.261Z,79.30
2018-08-10T06:39:12.285Z,79.60
2018-08-10T06:41:41.289Z,80.20
2018-08-10T06:44:10.067Z,80.70
2018-08-10T06:46:38.829Z,80.70
2018-08-10T06:49:07.641Z,79.60
2018-08-10T06:51:36.543Z,79.90
2018-08-10T06:54:05.496Z,79.80
2018-08-10T06:56:34.528Z,80.90
2018-08-10T06:59:03.416Z,80.50
2018-08-10T07:01:32.339Z,81.00
2018-08-10T07:04:01.260Z,81.40
2018-08-10T07:06:30.605Z,81.90
2018-08-10T07:08:59.612Z,82.00
2018-08-10T07:11:28.615Z,81.90
2018-08-10T07:13:57.585Z,81.90
2018-08-10T07:16:26.546Z,82.40
2018-08-10T07:18:55.387Z,82.70
2018-08-10T07:21:24.218Z,82.60
2018-08-10T07:23:53.091Z,82.60
2018-08-10T07:26:21.847Z,82.20
2018-08-10T07:28:50.708Z,82.50
2018-08-10T07:31:19.512Z,82.80
2018-08-10T07:33:48.340Z,82.50
2018-08-10T07:36:17.160Z,81.90
2018-08-10T07:38:46.142Z,82.30
2018-08-10T07:41:14.983Z,81.90
2018-08-10T07:43:43.917Z,82.40
2018-08-10T07:46:12.776Z,80.80
2018-08-10T07:48:46.864Z,80.50
2018-08-10T07:51:17.592Z,80.50
2018-08-10T07:53:46.658Z,80.50
2018-08-10T07:56:16.124Z,80.60
2018-08-10T07:58:45.346Z,80.60
2018-08-10T08:01:14.511Z,80.10
2018-08-10T08:03:43.968Z,78.80
2018-08-10T08:06:13.086Z,77.90
2018-08-10T08:08:41.969Z,77.90
2018-08-10T08:11:10.870Z,76.80
2018-08-10T08:13:39.636Z,77.20
2018-08-10T08:16:09.558Z,75.10
2018-08-10T08:18:38.685Z,74.00
2018-08-10T08:21:09.112Z,73.70
2018-08-10T08:23:38.012Z,71.70
2018-08-10T08:26:07.518Z,70.70
2018-08-10T08:28:36.970Z,70.70
2018-08-10T08:31:06.370Z,71.70
2018-08-10T08:33:45.002Z,70.40
2018-08-10T08:36:14.120Z,70.60
2018-08-10T08:38:54.278Z,70.10
2018-08-10T08:41:23.093Z,69.70
2018-08-10T08:44:28.525Z,70.10
2018-08-10T08:46:58.351Z,66.90
2018-08-10T08:49:27.290Z,68.10
2018-08-10T08:51:56.618Z,68.90
2018-08-10T08:55:02.702Z,67.80
2018-08-10T08:57:31.995Z,67.70
2018-08-10T09:00:01.027Z,64.70
2018-08-10T09:02:30.643Z,64.20
2018-08-10T09:05:07.084Z,62.60
2018-08-10T09:07:36.507Z,62.00
2018-08-10T09:10:11.349Z,61.10
2018-08-10T09:12:40.351Z,61.10
2018-08-10T09:15:11.323Z,61.20
2018-08-10T09:17:40.917Z,60.20
2018-08-10T09:20:10.343Z,60.90
2018-08-10T09:22:39.290Z,61.60
2018-08-10T09:25:10.526Z,60.70
2018-08-10T09:27:39.534Z,60.30
2018-08-10T09:30:10.402Z,60.30
2018-08-10T09:32:39.652Z,59.20
2018-08-10T09:35:09.730Z,59.70
2018-08-10T09:37:38.872Z,60.70
2018-08-10T09:40:11.640Z,60.10
2018-08-10T09:42:40.576Z,57.10
2018-08-10T09:45:10.800Z,56.50
2018-08-10T09:47:40.454Z,57.60
2018-08-10T09:50:11.003Z,54.90
2018-08-10T09:52:40.360Z,55.30
2018-08-10T09:55:27.760Z,56.60
2018-08-10T09:57:58.007Z,57.10
2018-08-10T10:00:32.202Z,56.80
2018-08-10T10:03:06.602Z,57.20
2018-08-10T10:05:35.604Z,57.00
2018-08-10T10:08:05.190Z,57.00
2018-08-10T10:10:34.033Z,57.30
2018-08-10T10:13:02.878Z,56.70
2018-08-10T10:15:32.140Z,57.30
2018-08-10T10:18:01.101Z,54.90
2018-08-10T10:20:30.074Z,55.00
2018-08-10T10:22:59.268Z,55.00
2018-08-10T10:25:28.105Z,54.80
2018-08-10T10:27:57.106Z,54.50
2018-08-10T10:30:25.936Z,54.10
2018-08-10T10:32:54.831Z,53.60
2018-08-10T10:35:23.698Z,52.70
2018-08-10T10:37:52.511Z,51.70
2018-08-10T10:40:22.019Z,53.40
2018-08-10T10:42:51.014Z,52.20
2018-08-10T10:45:19.934Z,51.10
2018-08-10T10:47:49.268Z,51.90
2018-08-10T10:50:18.958Z,51.10
2018-08-10T10:52:48.141Z,50.90
2018-08-10T10:55:17.002Z,49.20
2018-08-10T10:57:45.988Z,50.90
2018-08-10T11:00:17.676Z,51.30
2018-08-10T11:02:47.232Z,49.30
2018-08-10T11:05:16.077Z,50.00
2018-08-10T11:07:45.122Z,46.90
2018-08-10T11:10:15.566Z,46.20
2018-08-10T11:12:44.395Z,46.30
2018-08-10T11:15:13.899Z,46.40
2018-08-10T11:17:42.813Z,44.00
2018-08-10T11:20:12.698Z,45.70
2018-08-10T11:22:42.243Z,42.60
2018-08-10T11:25:12.748Z,45.80
2018-08-10T11:27:42.378Z,44.60
2018-08-10T11:30:11.559Z,47.10
2018-08-10T11:32:40.729Z,44.90
2018-08-10T11:35:10.141Z,46.20
2018-08-10T11:37:39.216Z,46.80
2018-08-10T11:40:10.344Z,44.50
2018-08-10T11:42:39.604Z,45.90
2018-08-10T11:45:11.079Z,46.60
2018-08-10T11:47:40.063Z,48.00
2018-08-10T11:50:09.125Z,48.30
2018-08-10T11:52:38.359Z,47.20
2018-08-10T11:55:08.577Z,47.10
2018-08-10T11:57:37.429Z,45.60
2018-08-10T12:00:07.685Z,46.20
2018-08-10T12:02:36.873Z,46.70
2018-08-10T12:05:07.675Z,47.10
2018-08-10T12:07:36.732Z,46.50
2018-08-10T12:10:06.264Z,46.20
2018-08-10T12:12:35.217Z,47.40
2018-08-10T12:15:04.055Z,47.60
2018-08-10T12:17:32.984Z,46.60
2018-08-10T12:20:01.983Z,47.40
2018-08-10T12:22:30.860Z,46.70
2018-08-10T12:25:00.439Z,48.30
2018-08-10T12:27:30.180Z,46.70
2018-08-10T12:29:59.132Z,43.60
2018-08-10T12:32:28.114Z,42.40
2018-08-10T12:34:56.972Z,41.60
2018-08-10T12:37:25.764Z,44.30
2018-08-10T12:39:54.676Z,43.20
2018-08-10T12:42:23.754Z,43.20
2018-08-10T12:44:52.566Z,40.40
2018-08-10T12:47:22.844Z,35.90
2018-08-10T12:49:51.944Z,37.20
2018-08-10T12:52:20.993Z,37.70
2018-08-10T12:54:49.926Z,39.30
2018-08-10T12:57:18.733Z,39.30
2018-08-10T12:59:47.663Z,40.00
2018-08-10T13:02:16.584Z,39.50
2018-08-10T13:04:45.449Z,33.70
2018-08-10T13:07:14.397Z,30.00
2018-08-10T13:09:43.293Z,29.70
2018-08-10T13:12:12.529Z,30.30
2018-08-10T13:14:41.355Z,30.20
2018-08-10T13:17:10.352Z,30.00
2018-08-10T13:19:39.618Z,30.80
2018-08-10T13:22:08.542Z,30.20
2018-08-10T13:24:37.385Z,30.90
2018-08-10T13:27:06.576Z,33.20
2018-08-10T13:29:35.507Z,34.80
2018-08-10T13:32:04.294Z,36.40
2018-08-10T13:34:33.110Z,36.90
2018-08-10T13:37:02.806Z,36.40
2018-08-10T13:39:31.873Z,34.90
2018-08-10T13:42:00.681Z,35.40
2018-08-10T13:44:29.587Z,33.90
2018-08-10T13:46:58.535Z,33.50
2018-08-10T13:49:27.451Z,33.90
2018-08-10T13:51:56.322Z,33.30
2018-08-10T13:54:25.394Z,33.30
2018-08-10T13:56:54.863Z,33.10
2018-08-10T13:59:23.707Z,31.60
2018-08-10T14:01:52.615Z,32.10
2018-08-10T14:04:21.593Z,30.30
2018-08-10T14:06:51.023Z,30.00
2018-08-10T14:09:19.837Z,30.30
2018-08-10T14:11:48.727Z,28.80
2018-08-10T14:14:17.538Z,29.60
2018-08-10T14:16:46.501Z,29.80
2018-08-10T14:19:15.451Z,29.90
2018-08-10T14:21:44.336Z,30.00
2018-08-10T14:24:13.239Z,29.50
2018-08-10T14:26:42.050Z,31.30
2018-08-10T14:29:10.839Z,31.40
2018-08-10T14:31:39.899Z,32.40
2018-08-10T14:34:08.945Z,33.30
2018-08-10T14:36:37.811Z,33.10
2018-08-10T14:39:09.557Z,33.80
2018-08-10T14:41:38.589Z,34.00
2018-08-10T14:44:07.540Z,36.00
2018-08-10T14:46:36.897Z,37.00
2018-08-10T14:49:06.753Z,34.40
2018-08-10T14:51:35.767Z,33.00
2018-08-10T14:54:04.671Z,32.30
2018-08-10T14:56:33.679Z,33.20
2018-08-10T14:59:02.559Z,31.30
2018-08-10T15:01:31.773Z,32.30
2018-08-10T15:04:00.683Z,31.60
2018-08-10T15:06:29.597Z,28.60
2018-08-10T15:08:58.365Z,29.50
2018-08-10T15:11:27.255Z,27.60
2018-08-10T15:13:56.127Z,27.20
2018-08-10T15:16:25.199Z,27.50
2018-08-10T15:18:54.158Z,28.20
2018-08-10T15:21:23.137Z,29.00
2018-08-10T15:23:51.918Z,28.70
2018-08-10T15:26:21.167Z,27.40
2018-08-10T15:28:49.997Z,27.50
2018-08-10T15:31:19.015Z,27.70
2018-08-10T15:33:48.308Z,27.10
2018-08-10T15:36:17.451Z,26.10
2018-08-10T15:38:46.501Z,27.10
2018-08-10T15:41:15.406Z,29.30
2018-08-10T15:43:44.360Z,30.30
2018-08-10T15:46:13.118Z,32.00
2018-08-10T15:48:41.917Z,33.50
2018-08-10T15:51:10.719Z,33.60
2018-08-10T15:53:39.577Z,33.80
2018-08-10T15:56:08.464Z,34.30
2018-08-10T15:58:37.259Z,33.90
2018-08-10T16:01:06.183Z,33.20
2018-08-10T16:03:35.026Z,33.30
2018-08-10T16:06:03.856Z,32.60
2018-08-10T16:08:32.824Z,32.80
2018-08-10T16:11:01.668Z,32.10
2018-08-10T16:13:30.624Z,32.10
2018-08-10T16:15:59.487Z,33.60
2018-08-10T16:18:28.357Z,33.60
2018-08-10T16:20:57.262Z,34.10
2018-08-10T16:23:26.292Z,35.50
2018-08-10T16:25:55.327Z,35.50
2018-08-10T16:28:25.102Z,35.90
2018-08-10T16:30:53.918Z,34.70
2018-08-10T16:33:22.775Z,35.20
2018-08-10T16:35:51.689Z,34.30
2018-08-10T16:38:20.481Z,35.10
2018-08-10T16:40:49.358Z,34.70
2018-08-10T16:43:18.468Z,34.70
2018-08-10T16:45:47.324Z,36.00
2018-08-10T16:48:16.368Z,35.90
2018-08-10T16:50:45.405Z,36.40
2018-08-10T16:53:14.507Z,36.20
2018-08-10T16:55:43.388Z,36.40
2018-08-10T16:58:12.185Z,36.00
2018-08-10T17:00:41.458Z,37.20
2018-08-10T17:03:10.362Z,36.70
2018-08-10T17:05:39.354Z,37.10
2018-08-10T17:08:08.188Z,37.30
2018-08-10T17:10:37.124Z,37.40
2018-08-10T17:13:06.056Z,38.00
2018-08-10T17:15:34.966Z,38.30
2018-08-10T17:18:03.929Z,38.30
2018-08-10T17:20:32.972Z,38.80
2018-08-10T17:23:02.031Z,38.90
2018-08-10T17:25:30.892Z,39.50
2018-08-10T17:27:59.714Z,39.40
2018-08-10T17:30:28.739Z,40.10
2018-08-10T17:32:57.652Z,40.20
2018-08-10T17:35:26.763Z,40.20
2018-08-10T17:37:55.820Z,40.80
2018-08-10T17:40:24.662Z,40.60
2018-08-10T17:42:53.491Z,40.20
2018-08-10T17:45:22.319Z,40.60
2018-08-10T17:47:51.311Z,40.80
2018-08-10T17:50:21.259Z,40.60
2018-08-10T17:52:51.660Z,40.60
2018-08-10T17:55:21.004Z,41.30
2018-08-10T17:57:49.905Z,41.20
2018-08-10T18:00:21.395Z,40.70
2018-08-10T18:02:50.972Z,40.70
2018-08-10T18:05:20.039Z,41.00
2018-08-10T18:07:48.890Z,41.40
2018-08-10T18:10:18.944Z,42.00
2018-08-10T18:12:48.025Z,42.00
2018-08-10T18:15:18.614Z,42.00
2018-08-10T18:17:48.340Z,41.90
2018-08-10T18:20:19.235Z,42.00
2018-08-10T18:22:49.567Z,43.10
2018-08-10T18:25:19.958Z,41.90
2018-08-10T18:27:48.828Z,42.50
2018-08-10T18:30:20.024Z,42.30
2018-08-10T18:32:49.241Z,42.50
2018-08-10T18:35:18.372Z,43.40
2018-08-10T18:37:48.120Z,43.40
2018-08-10T18:40:17.368Z,43.50
2018-08-10T18:42:47.580Z,43.30
2018-08-10T18:45:17.956Z,44.70
2018-08-10T18:47:46.891Z,44.50
2018-08-10T18:50:17.190Z,44.00
2018-08-10T18:52:46.881Z,45.10
2018-08-10T18:55:18.788Z,45.00
2018-08-10T18:57:48.124Z,44.60
2018-08-10T19:00:18.946Z,45.70
2018-08-10T19:02:48.097Z,46.30
2018-08-10T19:05:17.912Z,46.30
2018-08-10T19:07:47.640Z,47.20
2018-08-10T19:10:22.882Z,47.60
2018-08-10T19:12:52.050Z,47.90
2018-08-10T19:15:21.374Z,48.30
2018-08-10T19:17:50.378Z,48.90
2018-08-10T19:20:19.348Z,52.00
2018-08-10T19:22:48.547Z,53.40
2018-08-10T19:25:17.978Z,55.70
2018-08-10T19:27:47.529Z,58.10
2018-08-10T19:30:18.735Z,61.90
2018-08-10T19:32:48.423Z,63.80
2018-08-10T19:35:18.087Z,66.00
2018-08-10T19:37:47.100Z,69.00
2018-08-10T19:40:17.606Z,70.30
2018-08-10T19:42:46.723Z,71.10
2018-08-10T19:45:16.423Z,74.80
2018-08-10T19:47:46.393Z,76.10
2018-08-10T19:50:16.827Z,77.40
2018-08-10T19:52:45.923Z,77.70
2018-08-10T19:55:15.645Z,78.60
2018-08-10T19:57:44.568Z,78.80
2018-08-10T20:00:15.306Z,78.10
2018-08-10T20:02:46.654Z,78.20
2018-08-10T20:05:15.878Z,78.20
2018-08-10T20:07:45.040Z,78.00
2018-08-10T20:10:14.530Z,78.50
2018-08-10T20:12:43.454Z,79.20
2018-08-10T20:15:14.024Z,79.40
2018-08-10T20:17:43.262Z,79.30
2018-08-10T20:20:13.877Z,79.40
2018-08-10T20:22:42.770Z,80.20
2018-08-10T20:25:12.808Z,80.20
2018-08-10T20:27:42.532Z,80.80
2018-08-10T20:30:14.271Z,80.80
2018-08-10T20:32:43.504Z,81.20
2018-08-10T20:35:14.426Z,81.00
2018-08-10T20:37:43.742Z,81.40
2018-08-10T20:40:15.320Z,81.90
2018-08-10T20:42:44.512Z,81.90
2018-08-10T20:45:13.947Z,81.50
2018-08-10T20:47:43.760Z,81.90
2018-08-10T20:50:15.162Z,82.10
2018-08-10T20:52:44.636Z,82.40
2018-08-10T20:55:13.573Z,82.10
2018-08-10T20:57:42.770Z,82.10
2018-08-10T21:00:12.319Z,82.90
2018-08-10T21:02:42.860Z,82.70
2018-08-10T21:05:12.262Z,83.80
2018-08-10T21:07:41.195Z,83.20
2018-08-10T21:10:13.698Z,83.20
2018-08-10T21:12:43.672Z,83.20
2018-08-10T21:15:13.776Z,84.00
2018-08-10T21:17:43.712Z,83.90
2018-08-10T21:20:14.020Z,84.30
2018-08-10T21:22:43.135Z,84.40
2018-08-10T21:25:12.892Z,84.40
2018-08-10T21:27:42.454Z,84.80
2018-08-10T21:30:13.876Z,85.20
2018-08-10T21:32:43.088Z,85.10
2018-08-10T21:35:11.970Z,85.30
2018-08-10T21:37:41.105Z,85.30
2018-08-10T21:40:11.095Z,85.70
2018-08-10T21:42:40.725Z,85.70
2018-08-10T21:45:09.659Z,86.00
2018-08-10T21:47:39.079Z,86.50
2018-08-10T21:50:10.703Z,86.30
2018-08-10T21:52:39.981Z,86.70
2018-08-10T21:55:08.975Z,87.20
2018-08-10T21:57:38.058Z,87.20
2018-08-10T22:00:10.836Z,87.80
2018-08-10T22:02:39.747Z,87.90
2018-08-10T22:05:08.625Z,88.40
2018-08-10T22:07:37.581Z,88.70
2018-08-10T22:10:06.439Z,88.70
2018-08-10T22:12:39.497Z,89.10
2018-08-10T22:15:13.603Z,89.20
2018-08-10T22:17:48.133Z,89.40
2018-08-10T22:20:17.220Z,89.60
2018-08-10T22:22:46.133Z,90.00
2018-08-10T22:25:15.065Z,90.10
2018-08-10T22:27:44.228Z,90.20
2018-08-10T22:30:13.147Z,90.20
2018-08-10T22:32:42.059Z,90.40
2018-08-10T22:35:11.061Z,90.70
2018-08-10T22:37:39.945Z,90.50
2018-08-10T22:40:09.179Z,90.50
2018-08-10T22:42:38.134Z,90.90
2018-08-10T22:45:07.327Z,91.00
2018-08-10T22:47:36.232Z,91.10
2018-08-10T22:50:06.532Z,91.30
2018-08-10T22:52:35.371Z,91.40
2018-08-10T22:55:04.449Z,91.50
2018-08-10T22:57:33.317Z,91.70
2018-08-10T23:00:02.222Z,91.90
2018-08-10T23:02:31.110Z,91.90
2018-08-10T23:04:59.969Z,92.00
2018-08-10T23:07:28.846Z,92.10
2018-08-10T23:09:57.888Z,92.40
2018-08-10T23:12:26.775Z,92.30
2018-08-10T23:14:55.565Z,92.40
2018-08-10T23:17:25.354Z,92.60
2018-08-10T23:19:54.411Z,92.80
2018-08-10T23:22:23.321Z,92.80
2018-08-10T23:24:52.320Z,93.00
2018-08-10T23:27:21.436Z,92.80
2018-08-10T23:29:50.355Z,93.20
2018-08-10T23:32:19.259Z,93.30
2018-08-10T23:34:48.171Z,93.50
2018-08-10T23:37:16.954Z,93.50
2018-08-10T23:39:45.826Z,93.60
2018-08-10T23:42:14.741Z,93.70
2018-08-10T23:44:43.665Z,93.80
2018-08-10T23:47:12.557Z,93.90
2018-08-10T23:49:41.419Z,93.80
2018-08-10T23:52:10.320Z,94.10
2018-08-10T23:54:39.405Z,94.10
2018-08-10T23:57:08.291Z,94.40
2018-08-10T23:59:37.192Z,94.20
